createdAt,value
2023-05-06T00:00:17.535Z,97692.06
2023-05-06T00:05:19.409Z,97685.59
2023-05-06T00:10:21.412Z,97679.53
2023-05-06T00:15:23.371Z,97685.56
2023-05-06T00:20:25.533Z,97670.06
2023-05-06T00:25:27.420Z,97673.09
2023-05-06T00:30:29.581Z,97661.44
2023-05-06T00:35:31.559Z,97672.06
2023-05-06T00:40:33.405Z,97664.69
2023-05-06T00:45:35.623Z,97660.66
2023-05-06T00:50:39.667Z,97655.22
2023-05-06T00:55:41.787Z,97652.44
2023-05-06T01:00:43.726Z,97658.44
2023-05-06T01:05:59.964Z,97660.50
2023-05-06T01:11:15.790Z,97654.22
2023-05-06T01:16:20.682Z,97656.41
2023-05-06T01:21:24.257Z,97653.19
2023-05-06T01:26:27.402Z,97640.53
2023-05-06T01:31:43.062Z,97639.28
2023-05-06T01:37:20.458Z,97642.91
2023-05-06T01:42:24.685Z,97641.94
2023-05-06T01:47:27.126Z,97639.53
2023-05-06T01:52:29.002Z,97635.53
2023-05-06T01:57:30.927Z,97639.75
2023-05-06T02:02:32.850Z,97646.63
2023-05-06T02:07:34.671Z,97644.41
2023-05-06T02:12:36.791Z,97640.41
2023-05-06T02:17:38.910Z,97645.84
2023-05-06T02:22:40.834Z,97647.31
2023-05-06T02:27:42.740Z,97644.50
2023-05-06T02:32:44.617Z,97634.28
2023-05-06T02:37:46.441Z,97636.47
2023-05-06T02:42:48.399Z,97631.94
2023-05-06T02:47:50.281Z,97635.91
2023-05-06T02:52:52.238Z,97623.63
2023-05-06T02:57:54.094Z,97626.63
2023-05-06T03:02:56.018Z,97626.81
2023-05-06T03:07:58.023Z,97620.59
2023-05-06T03:12:59.991Z,97619.97
2023-05-06T03:18:03.141Z,97626.19
2023-05-06T03:23:05.438Z,97625.19
2023-05-06T03:28:07.467Z,97623.75
2023-05-06T03:33:12.253Z,97623.72
2023-05-06T03:38:14.493Z,97635.50
2023-05-06T03:43:26.128Z,97643.28
2023-05-06T03:48:32.234Z,97643.06
2023-05-06T03:53:34.327Z,97641.63
2023-05-06T03:58:38.389Z,97645.97
2023-05-06T04:03:42.944Z,97646.59
2023-05-06T04:08:44.966Z,97654.41
2023-05-06T04:13:47.104Z,97661.66
2023-05-06T04:18:52.984Z,97667.50
2023-05-06T04:23:54.872Z,97676.44
2023-05-06T04:29:03.744Z,97685.25
2023-05-06T04:34:08.278Z,97681.19
2023-05-06T04:39:10.638Z,97686.66
2023-05-06T04:44:14.080Z,97682.63
2023-05-06T04:49:18.519Z,97691.94
2023-05-06T04:54:20.515Z,97690.75
2023-05-06T04:59:22.511Z,97693.38
2023-05-06T05:04:24.564Z,97690.09
2023-05-06T05:09:26.514Z,97695.72
2023-05-06T05:14:28.595Z,97704.34
2023-05-06T05:19:30.642Z,97704.66
2023-05-06T05:24:32.577Z,97711.69
2023-05-06T05:29:34.638Z,97714.19
2023-05-06T05:34:39.373Z,97719.66
2023-05-06T05:39:41.654Z,97715.44
2023-05-06T05:44:45.841Z,97724.50
2023-05-06T05:49:47.698Z,97739.59
2023-05-06T05:54:51.628Z,97737.25
2023-05-06T05:59:53.693Z,97747.41
2023-05-06T06:04:55.740Z,97746.97
2023-05-06T06:09:58.185Z,97742.88
2023-05-06T06:15:00.126Z,97747.09
2023-05-06T06:20:02.126Z,97747.88
2023-05-06T06:25:04.279Z,97752.53
2023-05-06T06:30:07.885Z,97753.59
2023-05-06T06:35:09.963Z,97763.59
2023-05-06T06:40:12.583Z,97758.72
2023-05-06T06:45:14.744Z,97776.00
2023-05-06T06:50:16.623Z,97781.56
2023-05-06T06:55:18.580Z,97777.31
2023-05-06T07:00:20.427Z,97787.03
2023-05-06T07:05:23.420Z,97791.84
2023-05-06T07:10:25.330Z,97798.47
2023-05-06T07:15:27.232Z,97803.38
2023-05-06T07:20:29.076Z,97807.00
2023-05-06T07:25:31.428Z,97814.69
2023-05-06T07:30:33.596Z,97812.66
2023-05-06T07:35:36.950Z,97823.34
2023-05-06T07:40:38.811Z,97819.06
2023-05-06T07:45:41.180Z,97822.28
2023-05-06T07:50:43.035Z,97834.47
2023-05-06T07:55:44.898Z,97831.22
2023-05-06T08:00:46.785Z,97833.97
2023-05-06T08:05:53.635Z,97837.72
2023-05-06T08:10:56.355Z,97841.94
2023-05-06T08:15:58.271Z,97849.63
2023-05-06T08:21:00.169Z,97862.50
2023-05-06T08:26:02.063Z,97867.34
2023-05-06T08:31:03.928Z,97868.69
2023-05-06T08:36:05.970Z,97881.28
2023-05-06T08:41:11.953Z,97878.13
2023-05-06T08:46:14.601Z,97883.09
2023-05-06T08:51:16.991Z,97888.81
2023-05-06T08:56:20.218Z,97891.34
2023-05-06T09:01:22.293Z,97898.75
2023-05-06T09:06:25.132Z,97894.97
2023-05-06T09:11:30.642Z,97905.13
2023-05-06T09:16:32.741Z,97905.94
2023-05-06T09:21:34.649Z,97898.34
2023-05-06T09:26:39.473Z,97896.91
2023-05-06T09:31:46.164Z,97902.81
2023-05-06T09:36:48.085Z,97900.91
2023-05-06T09:41:50.157Z,97896.63
2023-05-06T09:46:52.300Z,97893.09
2023-05-06T09:51:54.172Z,97891.78
2023-05-06T09:56:57.057Z,97886.72
2023-05-06T10:02:00.437Z,97886.59
2023-05-06T10:07:04.114Z,97885.22
2023-05-06T10:12:08.758Z,97892.53
2023-05-06T10:17:12.666Z,97894.94
2023-05-06T10:22:56.745Z,97883.00
2023-05-06T10:28:00.054Z,97882.28
2023-05-06T10:33:10.826Z,97878.06
2023-05-06T10:38:28.474Z,97884.16
2023-05-06T10:43:32.340Z,97880.19
2023-05-06T10:48:35.688Z,97879.78
2023-05-06T10:54:00.379Z,97882.25
2023-05-06T10:59:12.903Z,97877.03
2023-05-06T11:04:18.752Z,97882.31
2023-05-06T11:09:21.996Z,97873.25
2023-05-06T11:14:37.361Z,97872.56
2023-05-06T11:19:40.102Z,97890.00
2023-05-06T11:24:43.747Z,97895.06
2023-05-06T11:29:45.602Z,97896.63
2023-05-06T11:34:47.469Z,97888.44
2023-05-06T11:39:49.685Z,97886.97
2023-05-06T11:44:55.226Z,97893.22
2023-05-06T11:49:58.605Z,97890.31
2023-05-06T11:55:00.575Z,97903.25
2023-05-06T12:00:05.043Z,97903.44
2023-05-06T12:05:13.831Z,97904.00
2023-05-06T12:10:17.266Z,97905.50
2023-05-06T12:15:19.314Z,97915.28
2023-05-06T12:20:22.524Z,97910.66
2023-05-06T12:25:24.314Z,97914.19
2023-05-06T12:30:31.286Z,97914.50
2023-05-06T12:35:33.211Z,97913.03
2023-05-06T12:40:35.339Z,97926.16
2023-05-06T12:45:40.965Z,97925.00
2023-05-06T12:50:45.061Z,97926.56
2023-05-06T12:55:46.912Z,97929.94
2023-05-06T13:00:48.794Z,97916.72
2023-05-06T13:05:51.892Z,97912.03
2023-05-06T13:10:53.829Z,97914.44
2023-05-06T13:15:56.487Z,97919.78
2023-05-06T13:21:00.289Z,97915.22
2023-05-06T13:26:05.985Z,97931.03
2023-05-06T13:31:08.597Z,97923.28
2023-05-06T13:36:10.668Z,97914.72
2023-05-06T13:41:12.710Z,97909.13
2023-05-06T13:46:14.644Z,97917.91
2023-05-06T13:51:16.551Z,97921.13
2023-05-06T13:56:18.394Z,97918.13
2023-05-06T14:01:24.538Z,97914.09
2023-05-06T14:06:27.699Z,97918.97
2023-05-06T14:11:29.774Z,97914.41
2023-05-06T14:16:31.803Z,97922.44
2023-05-06T14:21:34.629Z,97916.13
2023-05-06T14:26:36.533Z,97914.34
2023-05-06T14:31:38.478Z,97906.09
2023-05-06T14:36:40.452Z,97908.09
2023-05-06T14:41:42.289Z,97899.41
2023-05-06T14:46:44.130Z,97888.78
2023-05-06T14:51:49.903Z,97896.91
2023-05-06T14:56:51.818Z,97896.53
2023-05-06T15:01:53.745Z,97899.28
2023-05-06T15:06:57.751Z,97888.06
2023-05-06T15:12:00.554Z,97892.91
2023-05-06T15:17:02.421Z,97889.91
2023-05-06T15:22:04.505Z,97893.25
2023-05-06T15:27:07.005Z,97891.28
2023-05-06T15:32:09.138Z,97902.66
2023-05-06T15:37:13.302Z,97905.53
2023-05-06T15:42:16.717Z,97905.38
2023-05-06T15:47:18.799Z,97899.50
2023-05-06T15:52:21.256Z,97899.91
2023-05-06T15:57:23.176Z,97911.66
2023-05-06T16:02:27.277Z,97901.75
2023-05-06T16:07:29.976Z,97905.03
2023-05-06T16:12:32.723Z,97909.00
2023-05-06T16:17:37.681Z,97908.16
2023-05-06T16:22:40.554Z,97910.41
2023-05-06T16:27:42.391Z,97913.47
2023-05-06T16:32:44.437Z,97912.94
2023-05-06T16:37:46.332Z,97915.34
2023-05-06T16:42:49.654Z,97916.25
2023-05-06T16:47:51.648Z,97917.53
2023-05-06T16:52:54.080Z,97924.34
2023-05-06T16:57:56.043Z,97924.19
2023-05-06T17:02:58.086Z,97933.88
2023-05-06T17:07:59.988Z,97921.75
2023-05-06T17:13:01.949Z,97932.06
2023-05-06T17:18:04.024Z,97922.72
2023-05-06T17:23:05.930Z,97928.91
2023-05-06T17:28:07.750Z,97927.94
2023-05-06T17:33:09.930Z,97924.09
2023-05-06T17:38:13.008Z,97924.19
2023-05-06T17:43:14.833Z,97930.69
2023-05-06T17:48:16.702Z,97927.91
2023-05-06T17:53:18.589Z,97947.53
2023-05-06T17:58:21.486Z,97941.88
2023-05-06T18:03:23.855Z,97946.09
2023-05-06T18:08:25.756Z,97950.50
2023-05-06T18:13:27.615Z,97959.38
2023-05-06T18:18:29.600Z,97960.25
2023-05-06T18:23:31.605Z,97958.25
2023-05-06T18:28:37.872Z,97962.22
2023-05-06T18:33:39.694Z,97966.31
2023-05-06T18:38:41.579Z,97964.50
2023-05-06T18:43:43.409Z,97969.69
2023-05-06T18:48:45.521Z,97972.28
2023-05-06T18:53:47.774Z,97982.28
2023-05-06T18:58:49.621Z,97983.47
2023-05-06T19:03:54.334Z,97981.72
2023-05-06T19:08:56.262Z,97988.50
2023-05-06T19:13:58.208Z,97998.06
2023-05-06T19:19:02.610Z,98001.09
2023-05-06T19:24:05.872Z,98008.66
2023-05-06T19:29:07.769Z,98007.69
2023-05-06T19:34:09.887Z,98013.78
2023-05-06T19:39:11.675Z,98019.16
2023-05-06T19:44:14.078Z,98024.03
2023-05-06T19:49:15.945Z,98024.78
2023-05-06T19:54:19.431Z,98018.88
2023-05-06T19:59:21.283Z,98022.97
2023-05-06T20:04:23.085Z,98027.84
2023-05-06T20:09:24.900Z,98023.16
2023-05-06T20:14:26.760Z,98021.19
2023-05-06T20:19:31.962Z,98016.47
2023-05-06T20:24:34.834Z,98027.06
2023-05-06T20:29:36.701Z,98023.75
2023-05-06T20:34:38.596Z,98028.16
2023-05-06T20:39:40.666Z,98031.50
2023-05-06T20:44:43.441Z,98042.72
2023-05-06T20:49:45.296Z,98044.84
2023-05-06T20:54:47.440Z,98040.13
2023-05-06T20:59:52.527Z,98053.03
2023-05-06T21:04:54.585Z,98049.44
2023-05-06T21:09:56.407Z,98048.31
2023-05-06T21:14:59.697Z,98055.16
2023-05-06T21:20:02.044Z,98061.81
2023-05-06T21:25:06.042Z,98061.94
2023-05-06T21:30:09.087Z,98061.94
2023-05-06T21:35:11.108Z,98052.22
2023-05-06T21:40:13.368Z,98056.44
2023-05-06T21:45:16.290Z,98063.94
2023-05-06T21:50:18.203Z,98063.16
2023-05-06T21:55:20.065Z,98068.25
2023-05-06T22:00:23.014Z,98060.13
2023-05-06T22:05:25.178Z,98061.63
2023-05-06T22:10:26.984Z,98064.09
2023-05-06T22:15:28.824Z,98066.50
2023-05-06T22:20:30.780Z,98062.97
2023-05-06T22:25:32.552Z,98059.56
2023-05-06T22:30:34.363Z,98067.53
2023-05-06T22:35:36.236Z,98060.72
2023-05-06T22:40:38.074Z,98053.41
2023-05-06T22:45:39.932Z,98059.25
2023-05-06T22:50:42.035Z,98056.81
2023-05-06T22:55:45.430Z,98067.69
2023-05-06T23:00:48.061Z,98060.25
2023-05-06T23:05:50.191Z,98063.34
2023-05-06T23:10:52.108Z,98065.63
2023-05-06T23:15:53.962Z,98067.72
2023-05-06T23:20:55.777Z,98068.72
2023-05-06T23:25:57.629Z,98073.06
2023-05-06T23:30:59.533Z,98056.34
2023-05-06T23:36:02.481Z,98057.00
2023-05-06T23:41:04.343Z,98053.09
2023-05-06T23:46:06.267Z,98058.13
2023-05-06T23:51:08.155Z,98049.88
2023-05-06T23:56:09.978Z,98060.25
